Oshkosh, WI (54902)

10:48 AM CST on February 12, 2016 (GMT -0600)
Klab1417 | | Change Station
CLOSE
Current Station
Personal Weather Station
Location: Oshkosh, WI
Elevation: 791 ft
Nearby Weather Stations
Active Advisory: Wind Chill Advisory

Elev 791 ft 44.04 °N, 88.61 °W | Updated 6 minutes ago

Partly Cloudy
Partly Cloudy
17.8 °F
Feels Like 10 °F
N
5.3
Wind Variable Wind from NNE

Today
High -- | Low -- °F
--% Chance of Precip.
Yesterday
High -- | Low -- °F
Precip. -- in
Pressure 30.20 in
Visibility 10.0 miles
Clouds Few 3100 ft
Windchill 10 °F
Dew Point 5 °F
Humidity 57%
Rainfall 0.00 in
Snow Depth Not available.
6:58 AM 5:19 PM
Waxing Crescent, 22% visible
METAR KOSH 121553Z 30016G23KT 10SM FEW031 M10/M17 A3012 RMK AO2 PK WND 31026/1540 SLP225 T11001172
Pressure 30.20 in
Visibility 10.0 miles
Clouds Few 3100 ft
Windchill 10 °F
Dew Point 5 °F
Humidity 57%
Rainfall 0.00 in
Snow Depth Not available.
6:58 AM 5:19 PM
Waxing Crescent, 22% visible
METAR KOSH 121553Z 30016G23KT 10SM FEW031 M10/M17 A3012 RMK AO2 PK WND 31026/1540 SLP225 T11001172

10-Day Weather Forecast

Almanac

Astronomy

Feb. 12, 2016 Rise Set
Actual Time
Civil Twilight
Nautical Twilight
Astronomical Twilight
Moon
Length of Visible Light
Length of Day
Tomorrow will be .
, % of the Moon is Illuminated

Today's Extremes

State Highs State Lows

Community

WunderPhotos

Upload Photos

1,892,354 photos uploaded!

WunderBlog® & News

Nearby

Air Quality

  Air Quality AQ Index Pollutant
Not available.

Snow Depth

Station Depth Elevation

Earthquake Activity

City Distance Mag. Time & Date
Minimum magnitude displayed is 2.5.

Coastal Water Temperatures

Place Temperature

Stations

Nearby Weather Stations

Station Location Temp. Windchill Dew Point Humidity Wind Precip. Elev Updated Type
                   

Watches & Warnings

Wind Chill Advisory
Issued: 3:11 AM CST Feb. 12, 2016 – National Weather Service

... Wind Chill Advisory in effect from midnight tonight to 9 am
CST Saturday...

The National Weather Service in Green Bay has issued a Wind Chill
Advisory... which is in effect from midnight tonight to 9 am CST
Saturday.

* Wind chills will drop to 20 to 25 below zero tonight and early
Saturday.

* The cold wind chills will cause frostbite on exposed skin in as
little as 20 to 30 minutes.

Precautionary/preparedness actions...

A Wind Chill Advisory means that cold air and the wind will
combine to generate low wind chills. Frost bite and hypothermia
can occur if precautions are not taken. Make sure you wear a hat
and gloves.

Tsk